This is the latest recevied weather packets stored in our database for station/object EA1ZE. If no packets are shown the sender has not sent any weather packets the latest 10 day(s).
| Time | Temp. | Humidity | Pressure | Rain* | Wind** | Luminosity | Snow |
|---|---|---|---|---|---|---|---|
| 1777490151 | 13.89° C | 80% | 1009.6 hPa | 0.51 mm | - | - | - |
| 1777489271 | 14.44° C | 76% | 1009.1 hPa | 0 mm | - | - | - |
| 1777488347 | 14.44° C | 76% | 1009.3 hPa | 0 mm | - | - | - |
| 1777487443 | 14.44° C | 76% | 1008.4 hPa | 0 mm | - | - | - |
| 1777486544 | 14.44° C | 76% | 1008.1 hPa | 0.25 mm | - | - | - |
| 1777485642 | 15° C | 75% | 1007.6 hPa | 0.51 mm | - | - | - |
| 1777484741 | 15° C | 78% | 1007.2 hPa | 0.51 mm | - | - | - |
| 1777483854 | 14.44° C | 82% | 1007.4 hPa | 0.51 mm | - | - | - |
| 1777482952 | 14.44° C | 82% | 1007.3 hPa | 0.25 mm | - | - | - |
| 1777482040 | 15° C | 76% | 1007.5 hPa | 0 mm | - | - | - |
| 1777481147 | 16.11° C | 68% | 1007.1 hPa | 0 mm | - | - | - |
| 1777480238 | 17.78° C | 63% | 1006.3 hPa | 0 mm | - | - | - |
| 1777479350 | 20° C | 59% | 1006.1 hPa | 0 mm | - | - | - |
| 1777478442 | 20° C | 58% | 1005.8 hPa | 0 mm | - | - | - |
| 1777477536 | 20° C | 57% | 1005.7 hPa | 0 mm | - | - | - |
| 1777476636 | 19.44° C | 58% | 1005.5 hPa | 0 mm | - | - | - |
| 1777475740 | 19.44° C | 60% | 1005.5 hPa | 0 mm | - | - | - |
| 1777474831 | 18.89° C | 64% | 1005.5 hPa | 0 mm | - | - | - |
| 1777473929 | 18.33° C | 67% | 1005.5 hPa | 0 mm | - | - | - |
| 1777473026 | 17.78° C | 68% | 1005.6 hPa | 0 mm | - | - | - |
| 1777472127 | 17.22° C | 70% | 1005.9 hPa | 0 mm | - | - | - |
| 1777471286 | 17.22° C | 69% | 1005.8 hPa | 0 mm | - | - | - |
| 1777470398 | 17.22° C | 70% | 1006 hPa | 0 mm | - | - | - |
| 1777469506 | 17.78° C | 69% | 1006.2 hPa | 0 mm | - | - | - |
| 1777468607 | 17.78° C | 67% | 1006.1 hPa | 0 mm | - | - | - |
* Rain latest hour (hover to see other rain measurements)
** Current wind speed in m/s (hover to see current wind gust speed)